CheckWX is a tool to help pilots better visualize weather data.  It is not intended as a substitute for an official pre-flight weather briefing.

09:27:54 UTC

FYGF METAR
Grootfontein Airport
Grootfontein, Namibia
Current

1 hour ago

FYGF 200800Z 03006KT CAVOK 27/12 Q1024
Observed
Feb-20 @ 08:00 UTC
Wind
  • 030° at 6 KTS
Visibility
10,000+ meters
Flight Rules
VFR
Cloud Levels
  • Clear skies
Temperature
27°C / 81°F
Dewpoint
12°C / 54°F
Humidity
39%
Altimeter
30.24" Hg
Pressure
1023.92 hPa
Previous

2 hours ago

FYGF 200700Z 34006KT 9999 FEW030 24/12 Q1023
Observed
Feb-20 @ 07:00 UTC
Wind
  • 340° at 6 KTS
Visibility
10,000+ meters
Flight Rules
VFR
Cloud Levels
  • Few at 3,000' AGL
Temperature
24°C / 75°F
Dewpoint
12°C / 54°F
Humidity
47%
Altimeter
30.21" Hg
Pressure
1022.92 hPa
Previous

3 hours ago

FYGF 200600Z 04004KT 9999 FEW030 21/12 Q1022
Observed
Feb-20 @ 06:00 UTC
Wind
  • 040° at 4 KTS
Visibility
10,000+ meters
Flight Rules
VFR
Cloud Levels
  • Few at 3,000' AGL
Temperature
21°C / 70°F
Dewpoint
12°C / 54°F
Humidity
57%
Altimeter
30.18" Hg
Pressure
1021.92 hPa